»·PEaware :: SKY244 KORS-KEAT

SKY244 :: KORS-KEAT

FLIGHT INFORMATION

Flight Status: Arrived
Operator:
Sky High Charters
More flights by this operator :: More flights under this callsign
Pilot: Basie S. (26327)
Aircraft: BEECH AIRCRAFT DEBONAIR BONANZA
(BE33)
More flights by this aircraft type
Origin: KORS Orcas I
United States
Destination: KEAT Pangborn Meml
United States
More flights between these airports :: More routes between these airports
Route: +FEGBA2 FEGBA SEA V2 ELN V25 EAT
File this flight plan on PilotEdge
Remarks:
Altitude:
(Current/Filed)
9,000ft
Speed:
(Current/Filed)
155kts
Departed: 18-Nov-19 03:51 PM
Arrived: 18-Nov-19 05:14 PM
Distance/Time
Traveled:
134nm/1:22
Distance/Time
To Go:
Arrived

Flight Plot

Page will automatically refresh every two minutes.

Flight plan parsing failed; only flown route is shown


Map Options




Map Legend


Flown Route
Filed Route
Departure Airport
Arrival Airport
Navaid (VOR, NDB)
Fix

Horizontal Profiles

Position Reports

Time Latitude Longitude Heading Altitude Ground
Speed
18-Nov-19 15:27 48.706036 -122.909579 1 28ft 0kts
18-Nov-19 15:28 48.706036 -122.909579 1 28ft 0kts
18-Nov-19 15:29 48.706036 -122.909579 1 28ft 0kts
18-Nov-19 15:30 48.706036 -122.909579 1 28ft 0kts
18-Nov-19 15:31 48.706036 -122.909579 1 28ft 0kts
18-Nov-19 15:32 48.706036 -122.909579 1 28ft 0kts
18-Nov-19 15:33 48.706036 -122.909579 1 28ft 0kts
18-Nov-19 15:34 48.706036 -122.909579 1 28ft 0kts
18-Nov-19 15:35 48.706036 -122.909579 1 28ft 0kts
18-Nov-19 15:36 48.706036 -122.909579 1 28ft 0kts
18-Nov-19 15:37 48.706036 -122.909579 1 28ft 0kts
18-Nov-19 15:38 48.706036 -122.909579 1 28ft 0kts
18-Nov-19 15:39 48.706036 -122.909579 1 28ft 0kts
18-Nov-19 15:40 48.706036 -122.909579 1 28ft 0kts
18-Nov-19 15:41 48.706036 -122.909579 1 28ft 0kts
18-Nov-19 15:42 48.706036 -122.909579 1 28ft 0kts
18-Nov-19 15:43 48.706036 -122.909579 1 28ft 0kts
18-Nov-19 15:44 48.706036 -122.909579 1 28ft 0kts
18-Nov-19 15:45 48.706036 -122.909579 1 28ft 0kts
18-Nov-19 15:46 48.706036 -122.909579 1 28ft 0kts
18-Nov-19 15:47 48.707247 -122.910014 0 28ft 14kts
18-Nov-19 15:48 48.711897 -122.909982 358 28ft 0kts
18-Nov-19 15:49 48.711897 -122.909982 358 28ft 0kts
18-Nov-19 15:50 48.705349 -122.910621 180 28ft 94kts
18-Nov-19 15:51 48.677293 -122.911326 178 914ft 119kts
18-Nov-19 15:52 48.645579 -122.909700 182 1902ft 108kts
18-Nov-19 15:53 48.617913 -122.910744 180 2872ft 90kts
18-Nov-19 15:54 48.595979 -122.910994 172 3602ft 82kts
18-Nov-19 15:55 48.569917 -122.909686 183 4084ft 108kts
18-Nov-19 15:56 48.537063 -122.911229 180 4512ft 126kts
18-Nov-19 15:57 48.502739 -122.896427 158 4925ft 132kts
18-Nov-19 15:58 48.468117 -122.876787 159 5327ft 133kts
18-Nov-19 15:59 48.433402 -122.857302 159 5725ft 133kts
18-Nov-19 16:00 48.399000 -122.838021 159 6121ft 131kts
18-Nov-19 16:01 48.364855 -122.818916 159 6517ft 130kts
18-Nov-19 16:02 48.331190 -122.800106 159 6913ft 128kts
18-Nov-19 16:03 48.298196 -122.781652 159 7385ft 125kts
18-Nov-19 16:04 48.266073 -122.763776 159 7878ft 122kts
18-Nov-19 16:05 48.234604 -122.746269 159 8373ft 119kts
18-Nov-19 16:06 48.204268 -122.729212 158 8866ft 116kts
18-Nov-19 16:07 48.172403 -122.711248 159 9181ft 136kts
18-Nov-19 16:09 48.133897 -122.690053 159 9177ft 155kts
18-Nov-19 16:10 48.092543 -122.667323 159 9174ft 160kts
18-Nov-19 16:11 48.050558 -122.644168 159 9173ft 161kts
18-Nov-19 16:12 48.008415 -122.620940 159 9173ft 161kts
18-Nov-19 16:13 47.966502 -122.597916 159 9173ft 159kts
18-Nov-19 16:14 47.924994 -122.575092 159 9173ft 159kts
18-Nov-19 16:15 47.883481 -122.552318 159 9173ft 158kts
18-Nov-19 16:16 47.842132 -122.529683 159 9173ft 158kts
18-Nov-19 16:17 47.800755 -122.507070 159 9173ft 158kts
18-Nov-19 16:18 47.759268 -122.484435 159 9173ft 158kts
18-Nov-19 16:19 47.717920 -122.461913 159 9173ft 158kts
18-Nov-19 16:20 47.676426 -122.439352 159 9173ft 158kts
18-Nov-19 16:21 47.635035 -122.416884 159 9173ft 158kts
18-Nov-19 16:22 47.593519 -122.394386 159 9173ft 158kts
18-Nov-19 16:23 47.552163 -122.372014 159 9173ft 158kts
18-Nov-19 16:24 47.510682 -122.349611 160 9173ft 158kts
18-Nov-19 16:25 47.469076 -122.327178 160 9173ft 158kts
18-Nov-19 16:26 47.432478 -122.295239 112 9178ft 158kts
18-Nov-19 16:26 47.421198 -122.243660 106 9173ft 158kts
18-Nov-19 16:28 47.406175 -122.170976 107 9173ft 159kts
18-Nov-19 16:29 47.392905 -122.108760 107 9173ft 158kts
18-Nov-19 16:29 47.381836 -122.057191 107 9173ft 158kts
18-Nov-19 16:30 47.368456 -121.995031 107 9173ft 158kts
18-Nov-19 16:32 47.352831 -121.922671 107 9173ft 158kts
18-Nov-19 16:33 47.339373 -121.860552 107 9173ft 158kts
18-Nov-19 16:33 47.328159 -121.808932 107 9173ft 159kts
18-Nov-19 16:34 47.314646 -121.746901 107 9173ft 159kts
18-Nov-19 16:35 47.301119 -121.684992 107 9173ft 159kts
18-Nov-19 16:37 47.285089 -121.611877 107 9090ft 161kts
18-Nov-19 16:37 47.273642 -121.559807 107 9091ft 159kts
18-Nov-19 16:38 47.259954 -121.497722 107 9091ft 159kts
18-Nov-19 16:39 47.246255 -121.435770 107 9091ft 159kts
18-Nov-19 16:40 47.232562 -121.374029 107 9091ft 159kts
18-Nov-19 16:41 47.218756 -121.311969 108 9091ft 159kts
18-Nov-19 16:42 47.204968 -121.250171 108 9091ft 159kts
18-Nov-19 16:43 47.191147 -121.188406 108 9091ft 159kts
18-Nov-19 16:44 47.177325 -121.126813 108 9091ft 159kts
18-Nov-19 16:45 47.163489 -121.065336 108 9168ft 154kts
18-Nov-19 16:46 47.150669 -121.008433 108 9541ft 141kts
18-Nov-19 16:47 47.138696 -120.955353 107 9997ft 132kts
18-Nov-19 16:48 47.127323 -120.904922 108 10488ft 128kts
18-Nov-19 16:49 47.142060 -120.868720 23 10999ft 121kts
18-Nov-19 16:50 47.172316 -120.848795 24 11491ft 117kts
18-Nov-19 16:51 47.203032 -120.826984 25 11697ft 135kts
18-Nov-19 16:52 47.239040 -120.801050 25 11694ft 150kts
18-Nov-19 16:53 47.277398 -120.773440 25 11692ft 155kts
18-Nov-19 16:54 47.316165 -120.745484 25 11691ft 155kts
18-Nov-19 16:55 47.355007 -120.717472 25 11691ft 155kts
18-Nov-19 16:56 47.393851 -120.689418 25 11691ft 155kts
18-Nov-19 16:57 47.436611 -120.674110 6 11085ft 147kts
18-Nov-19 16:58 47.473892 -120.664517 12 10359ft 132kts
18-Nov-19 16:59 47.508861 -120.649054 19 9656ft 130kts
18-Nov-19 17:00 47.539480 -120.629812 25 9487ft 108kts
18-Nov-19 17:01 47.565984 -120.608430 30 9280ft 118kts
18-Nov-19 17:02 47.594368 -120.579395 37 8684ft 129kts
18-Nov-19 17:03 47.614363 -120.537050 94 7890ft 134kts
18-Nov-19 17:04 47.592445 -120.494045 132 7092ft 134kts
18-Nov-19 17:05 47.567021 -120.455833 133 6536ft 129kts
18-Nov-19 17:06 47.541499 -120.417713 134 5842ft 130kts
18-Nov-19 17:07 47.516499 -120.380633 134 5039ft 126kts
18-Nov-19 17:08 47.491415 -120.343551 135 4209ft 127kts
18-Nov-19 17:09 47.469065 -120.310660 134 3462ft 107kts
18-Nov-19 17:10 47.448134 -120.279724 134 2766ft 106kts
18-Nov-19 17:11 47.427299 -120.249009 134 2087ft 101kts
18-Nov-19 17:12 47.408977 -120.221984 135 1447ft 84kts
18-Nov-19 17:13 47.400830 -120.208506 70 1252ft 0kts
18-Nov-19 17:14 47.401024 -120.207711 72 1253ft 8kts

Navigation Log

Ident Type
Flight plan parsing failed, navigation log unavailable